Shady Camp, Colorado
Current Conditions -  °F | °C
As of 4:53 PM on Tuesday 25 Nov 2014 (Local Time) from KLAA Reporting Station
Clear Clear  
Wind Chill: 36°   Ceiling: Unl
Heat Index: 41°   Visibility: 10mi
Dew Point: 14°   Wind: 7mph
Humidity: 33%   Direction: 200°SSW
Pressure: 29.88"   Gusts: NA
Location:  37.885°N, 102.667°W
Report Text: KLAA 252353Z AUTO 20006KT 10SM CLR 05/M10 A2988 RMK AO2 SLP134 T00501100 10122 20050 55005
Loading
Personal Weather Stations






























Interactive Weather Map New forecast layout! Learn more

10-Day Weather Forecast

Advertisements
Track Severe Weather on mobile